sensor_id;sensor_type;location;lat;lon;timestamp;pressure;altitude;pressure_sealevel;temperature;humidity
69980;BME280;57318;56.232;43.944;2022-07-31T00:00:43;99337.00;;;15.11;69.17
69980;BME280;57318;56.232;43.944;2022-07-31T00:03:09;99335.44;;;15.09;68.95
69980;BME280;57318;56.232;43.944;2022-07-31T00:05:35;99334.47;;;15.10;68.61
69980;BME280;57318;56.232;43.944;2022-07-31T00:08:01;99339.44;;;15.05;69.23
69980;BME280;57318;56.232;43.944;2022-07-31T00:10:27;99335.22;;;15.02;69.24
69980;BME280;57318;56.232;43.944;2022-07-31T00:12:53;99340.44;;;15.04;68.83
69980;BME280;57318;56.232;43.944;2022-07-31T00:15:19;99336.22;;;15.01;69.22
69980;BME280;57318;56.232;43.944;2022-07-31T00:17:46;99335.53;;;14.99;69.44
69980;BME280;57318;56.232;43.944;2022-07-31T00:20:13;99338.22;;;14.99;69.72
69980;BME280;57318;56.232;43.944;2022-07-31T00:22:44;99339.19;;;14.98;69.85
69980;BME280;57318;56.232;43.944;2022-07-31T00:25:11;99332.34;;;14.95;69.88
69980;BME280;57318;56.232;43.944;2022-07-31T00:27:39;99336.16;;;14.93;70.07
69980;BME280;57318;56.232;43.944;2022-07-31T00:30:05;99338.84;;;14.93;70.27
69980;BME280;57318;56.232;43.944;2022-07-31T00:32:31;99335.94;;;14.86;70.83
69980;BME280;57318;56.232;43.944;2022-07-31T00:34:56;99341.59;;;14.83;70.85
69980;BME280;57318;56.232;43.944;2022-07-31T00:37:22;99348.06;;;14.80;71.04
69980;BME280;57318;56.232;43.944;2022-07-31T00:39:48;99351.75;;;14.79;70.89
69980;BME280;57318;56.232;43.944;2022-07-31T00:42:18;99342.19;;;14.77;71.22
69980;BME280;57318;56.232;43.944;2022-07-31T00:44:44;99346.16;;;14.73;71.34
69980;BME280;57318;56.232;43.944;2022-07-31T00:47:10;99346.31;;;14.71;71.44
69980;BME280;57318;56.232;43.944;2022-07-31T00:49:36;99345.63;;;14.69;71.59
69980;BME280;57318;56.232;43.944;2022-07-31T00:52:02;99345.25;;;14.64;71.70
69980;BME280;57318;56.232;43.944;2022-07-31T00:54:27;99336.69;;;14.60;71.58
69980;BME280;57318;56.232;43.944;2022-07-31T00:56:53;99339.63;;;14.57;71.68
69980;BME280;57318;56.232;43.944;2022-07-31T00:59:19;99339.78;;;14.56;71.94
69980;BME280;57318;56.232;43.944;2022-07-31T01:01:44;99335.72;;;14.52;72.26
69980;BME280;57318;56.232;43.944;2022-07-31T01:04:10;99339.69;;;14.48;72.04
69980;BME280;57318;56.232;43.944;2022-07-31T01:06:37;99340.41;;;14.50;72.56
69980;BME280;57318;56.232;43.944;2022-07-31T01:09:03;99341.66;;;14.46;72.73
69980;BME280;57318;56.232;43.944;2022-07-31T01:14:34;99334.25;;;14.39;72.77
69980;BME280;57318;56.232;43.944;2022-07-31T01:17:02;99331.88;;;14.36;72.79
69980;BME280;57318;56.232;43.944;2022-07-31T01:19:35;99346.94;;;14.37;72.76
69980;BME280;57318;56.232;43.944;2022-07-31T01:24:49;99342.41;;;14.38;73.40
69980;BME280;57318;56.232;43.944;2022-07-31T01:30:25;99352.81;;;14.41;73.08
69980;BME280;57318;56.232;43.944;2022-07-31T01:32:54;99348.47;;;14.40;73.60
69980;BME280;57318;56.232;43.944;2022-07-31T01:35:27;99342.13;;;14.41;73.70
69980;BME280;57318;56.232;43.944;2022-07-31T01:38:05;99341.44;;;14.39;74.03
69980;BME280;57318;56.232;43.944;2022-07-31T01:40:37;99351.97;;;14.40;73.59
69980;BME280;57318;56.232;43.944;2022-07-31T01:43:11;99335.66;;;14.43;73.42
69980;BME280;57318;56.232;43.944;2022-07-31T01:45:42;99343.22;;;14.48;73.65
69980;BME280;57318;56.232;43.944;2022-07-31T01:48:12;99344.88;;;14.49;74.08
69980;BME280;57318;56.232;43.944;2022-07-31T01:50:41;99347.56;;;14.49;74.08
69980;BME280;57318;56.232;43.944;2022-07-31T01:53:07;99348.88;;;14.45;74.05
69980;BME280;57318;56.232;43.944;2022-07-31T01:55:35;99353.66;;;14.41;74.06
69980;BME280;57318;56.232;43.944;2022-07-31T01:58:01;99353.81;;;14.40;74.06
69980;BME280;57318;56.232;43.944;2022-07-31T02:00:28;99358.84;;;14.43;73.78
69980;BME280;57318;56.232;43.944;2022-07-31T02:02:54;99348.41;;;14.50;73.18
69980;BME280;57318;56.232;43.944;2022-07-31T02:05:22;99351.31;;;14.56;72.87
69980;BME280;57318;56.232;43.944;2022-07-31T02:07:48;99365.09;;;14.61;72.57
69980;BME280;57318;56.232;43.944;2022-07-31T02:10:16;99357.50;;;14.67;72.10
69980;BME280;57318;56.232;43.944;2022-07-31T02:12:43;99359.69;;;14.71;72.02
69980;BME280;57318;56.232;43.944;2022-07-31T02:15:12;99357.94;;;14.80;71.60
69980;BME280;57318;56.232;43.944;2022-07-31T02:17:40;99367.28;;;14.94;71.13
69980;BME280;57318;56.232;43.944;2022-07-31T02:20:08;99366.38;;;15.03;70.89
69980;BME280;57318;56.232;43.944;2022-07-31T02:22:35;99368.13;;;15.12;70.96
69980;BME280;57318;56.232;43.944;2022-07-31T02:25:04;99369.38;;;15.26;70.68
69980;BME280;57318;56.232;43.944;2022-07-31T02:27:32;99359.97;;;15.40;70.59
69980;BME280;57318;56.232;43.944;2022-07-31T02:29:59;99365.44;;;15.57;70.23
69980;BME280;57318;56.232;43.944;2022-07-31T02:32:27;99364.72;;;15.73;70.34
69980;BME280;57318;56.232;43.944;2022-07-31T02:34:54;99360.47;;;15.88;69.74
69980;BME280;57318;56.232;43.944;2022-07-31T02:37:23;99366.38;;;16.00;69.38
69980;BME280;57318;56.232;43.944;2022-07-31T02:39:51;99361.59;;;16.12;68.79
69980;BME280;57318;56.232;43.944;2022-07-31T02:42:22;99368.03;;;16.27;68.43
69980;BME280;57318;56.232;43.944;2022-07-31T02:44:49;99368.56;;;16.39;68.13
69980;BME280;57318;56.232;43.944;2022-07-31T02:47:17;99358.59;;;16.57;67.57
69980;BME280;57318;56.232;43.944;2022-07-31T02:49:43;99358.59;;;16.66;67.17
69980;BME280;57318;56.232;43.944;2022-07-31T02:52:10;99355.59;;;16.69;67.15
69980;BME280;57318;56.232;43.944;2022-07-31T02:54:38;99366.16;;;16.78;66.90
69980;BME280;57318;56.232;43.944;2022-07-31T02:57:05;99363.38;;;16.88;66.58
69980;BME280;57318;56.232;43.944;2022-07-31T02:59:31;99361.69;;;16.95;66.69
69980;BME280;57318;56.232;43.944;2022-07-31T03:02:00;99368.75;;;17.13;66.29
69980;BME280;57318;56.232;43.944;2022-07-31T03:04:27;99373.63;;;17.26;65.96
69980;BME280;57318;56.232;43.944;2022-07-31T03:06:54;99377.50;;;17.31;65.79
69980;BME280;57318;56.232;43.944;2022-07-31T03:09:20;99371.78;;;17.35;65.76
69980;BME280;57318;56.232;43.944;2022-07-31T03:11:46;99372.28;;;17.30;66.01
69980;BME280;57318;56.232;43.944;2022-07-31T03:14:12;99367.25;;;17.35;65.42
69980;BME280;57318;56.232;43.944;2022-07-31T03:16:39;99369.75;;;17.37;65.56
69980;BME280;57318;56.232;43.944;2022-07-31T03:19:07;99367.94;;;17.37;65.71
69980;BME280;57318;56.232;43.944;2022-07-31T03:21:33;99365.09;;;17.39;65.45
69980;BME280;57318;56.232;43.944;2022-07-31T03:24:00;99363.22;;;17.39;65.47
69980;BME280;57318;56.232;43.944;2022-07-31T03:26:27;99364.91;;;17.40;65.48
69980;BME280;57318;56.232;43.944;2022-07-31T03:28:53;99361.38;;;17.40;65.57
69980;BME280;57318;56.232;43.944;2022-07-31T03:31:19;99369.44;;;17.40;65.76
69980;BME280;57318;56.232;43.944;2022-07-31T03:33:45;99364.22;;;17.46;65.65
69980;BME280;57318;56.232;43.944;2022-07-31T03:36:11;99366.91;;;17.55;65.52
69980;BME280;57318;56.232;43.944;2022-07-31T03:38:37;99364.38;;;17.61;65.18
69980;BME280;57318;56.232;43.944;2022-07-31T03:41:03;99361.66;;;17.70;64.81
69980;BME280;57318;56.232;43.944;2022-07-31T03:43:30;99364.34;;;17.70;64.61
69980;BME280;57318;56.232;43.944;2022-07-31T03:46:00;99365.69;;;17.74;64.46
69980;BME280;57318;56.232;43.944;2022-07-31T03:48:27;99370.06;;;17.83;64.13
69980;BME280;57318;56.232;43.944;2022-07-31T03:50:54;99366.84;;;17.88;63.81
69980;BME280;57318;56.232;43.944;2022-07-31T03:53:20;99374.56;;;17.82;63.65
69980;BME280;57318;56.232;43.944;2022-07-31T03:55:46;99367.22;;;17.68;64.13
69980;BME280;57318;56.232;43.944;2022-07-31T03:58:13;99377.78;;;17.70;63.93
69980;BME280;57318;56.232;43.944;2022-07-31T04:00:39;99370.59;;;17.70;63.82
69980;BME280;57318;56.232;43.944;2022-07-31T04:03:07;99366.03;;;17.71;63.82
69980;BME280;57318;56.232;43.944;2022-07-31T04:05:33;99369.06;;;17.67;64.14
69980;BME280;57318;56.232;43.944;2022-07-31T04:07:59;99369.72;;;17.70;63.75
69980;BME280;57318;56.232;43.944;2022-07-31T04:10:25;99362.50;;;17.78;63.44
69980;BME280;57318;56.232;43.944;2022-07-31T04:12:51;99370.72;;;17.85;63.15
69980;BME280;57318;56.232;43.944;2022-07-31T04:15:17;99369.41;;;17.89;63.12
69980;BME280;57318;56.232;43.944;2022-07-31T04:17:43;99369.06;;;17.92;63.28
69980;BME280;57318;56.232;43.944;2022-07-31T04:20:09;99376.94;;;17.94;63.04
69980;BME280;57318;56.232;43.944;2022-07-31T04:22:36;99377.44;;;17.97;62.97
69980;BME280;57318;56.232;43.944;2022-07-31T04:25:03;99371.22;;;17.97;63.01
69980;BME280;57318;56.232;43.944;2022-07-31T04:27:29;99367.84;;;17.95;63.25
69980;BME280;57318;56.232;43.944;2022-07-31T04:29:55;99355.09;;;17.97;63.26
69980;BME280;57318;56.232;43.944;2022-07-31T04:32:22;99367.03;;;17.94;63.33
69980;BME280;57318;56.232;43.944;2022-07-31T04:34:48;99369.72;;;17.94;63.53
69980;BME280;57318;56.232;43.944;2022-07-31T04:37:14;99367.03;;;17.94;63.51
69980;BME280;57318;56.232;43.944;2022-07-31T04:39:41;99363.31;;;18.03;63.19
69980;BME280;57318;56.232;43.944;2022-07-31T04:42:07;99366.13;;;18.10;63.01
69980;BME280;57318;56.232;43.944;2022-07-31T04:44:34;99367.13;;;18.17;62.86
69980;BME280;57318;56.232;43.944;2022-07-31T04:47:01;99358.84;;;18.27;62.67
69980;BME280;57318;56.232;43.944;2022-07-31T04:49:27;99359.63;;;18.36;62.38
69980;BME280;57318;56.232;43.944;2022-07-31T04:51:55;99366.66;;;18.45;62.09
69980;BME280;57318;56.232;43.944;2022-07-31T04:54:21;99367.81;;;18.51;61.97
69980;BME280;57318;56.232;43.944;2022-07-31T04:56:47;99371.50;;;18.50;62.32
69980;BME280;57318;56.232;43.944;2022-07-31T04:59:15;99370.81;;;18.56;62.34
69980;BME280;57318;56.232;43.944;2022-07-31T05:01:42;99375.97;;;18.66;62.10
69980;BME280;57318;56.232;43.944;2022-07-31T05:04:08;99373.59;;;18.71;62.23
69980;BME280;57318;56.232;43.944;2022-07-31T05:06:45;99368.50;;;18.76;62.08
69980;BME280;57318;56.232;43.944;2022-07-31T05:09:15;99376.38;;;18.86;61.59
69980;BME280;57318;56.232;43.944;2022-07-31T05:11:42;99366.88;;;18.98;61.47
69980;BME280;57318;56.232;43.944;2022-07-31T05:14:10;99378.97;;;19.02;61.24
69980;BME280;57318;56.232;43.944;2022-07-31T05:16:36;99371.13;;;19.16;60.80
69980;BME280;57318;56.232;43.944;2022-07-31T05:19:03;99375.06;;;19.28;59.95
69980;BME280;57318;56.232;43.944;2022-07-31T05:21:29;99367.63;;;19.30;59.17
69980;BME280;57318;56.232;43.944;2022-07-31T05:23:56;99369.53;;;19.44;59.33
69980;BME280;57318;56.232;43.944;2022-07-31T05:26:22;99372.38;;;19.66;58.57
69980;BME280;57318;56.232;43.944;2022-07-31T05:28:49;99370.38;;;19.83;57.30
69980;BME280;57318;56.232;43.944;2022-07-31T05:31:16;99368.63;;;20.05;56.98
69980;BME280;57318;56.232;43.944;2022-07-31T05:33:44;99370.09;;;20.23;55.75
69980;BME280;57318;56.232;43.944;2022-07-31T05:36:10;99361.34;;;20.35;55.62
69980;BME280;57318;56.232;43.944;2022-07-31T05:38:36;99367.47;;;20.44;55.58
69980;BME280;57318;56.232;43.944;2022-07-31T05:41:02;99364.34;;;20.41;55.60
69980;BME280;57318;56.232;43.944;2022-07-31T05:43:28;99364.59;;;20.46;55.55
69980;BME280;57318;56.232;43.944;2022-07-31T05:45:54;99363.19;;;20.65;54.95
69980;BME280;57318;56.232;43.944;2022-07-31T05:48:19;99360.66;;;20.78;54.32
69980;BME280;57318;56.232;43.944;2022-07-31T05:50:47;99358.38;;;20.82;54.16
69980;BME280;57318;56.232;43.944;2022-07-31T05:53:13;99357.81;;;20.86;54.19
69980;BME280;57318;56.232;43.944;2022-07-31T05:55:43;99355.50;;;20.83;54.04
69980;BME280;57318;56.232;43.944;2022-07-31T05:58:10;99351.66;;;20.93;54.33
69980;BME280;57318;56.232;43.944;2022-07-31T06:00:36;99352.16;;;21.03;53.60
69980;BME280;57318;56.232;43.944;2022-07-31T06:03:02;99353.69;;;21.12;53.14
69980;BME280;57318;56.232;43.944;2022-07-31T06:05:28;99353.31;;;21.15;52.71
69980;BME280;57318;56.232;43.944;2022-07-31T06:07:55;99356.00;;;21.15;51.62
69980;BME280;57318;56.232;43.944;2022-07-31T06:10:21;99353.13;;;21.17;51.37
69980;BME280;57318;56.232;43.944;2022-07-31T06:12:47;99351.00;;;21.12;50.44
69980;BME280;57318;56.232;43.944;2022-07-31T06:15:13;99347.38;;;21.26;49.98
69980;BME280;57318;56.232;43.944;2022-07-31T06:17:42;99338.72;;;21.38;49.88
69980;BME280;57318;56.232;43.944;2022-07-31T06:20:08;99342.53;;;21.43;49.87
69980;BME280;57318;56.232;43.944;2022-07-31T06:22:35;99338.09;;;21.57;49.51
69980;BME280;57318;56.232;43.944;2022-07-31T06:25:01;99339.22;;;21.70;49.37
69980;BME280;57318;56.232;43.944;2022-07-31T06:27:28;99332.84;;;21.77;48.99
69980;BME280;57318;56.232;43.944;2022-07-31T06:29:54;99330.13;;;21.77;48.78
69980;BME280;57318;56.232;43.944;2022-07-31T06:32:22;99329.72;;;21.80;48.57
69980;BME280;57318;56.232;43.944;2022-07-31T06:34:48;99328.31;;;21.91;48.14
69980;BME280;57318;56.232;43.944;2022-07-31T06:37:13;99324.00;;;22.04;47.29
69980;BME280;57318;56.232;43.944;2022-07-31T06:39:39;99331.81;;;22.20;46.98
69980;BME280;57318;56.232;43.944;2022-07-31T06:42:05;99327.63;;;22.73;44.27
69980;BME280;57318;56.232;43.944;2022-07-31T06:44:31;99328.28;;;24.02;40.95
69980;BME280;57318;56.232;43.944;2022-07-31T06:46:57;99323.28;;;25.90;37.66
69980;BME280;57318;56.232;43.944;2022-07-31T06:49:22;99330.50;;;27.43;34.74
69980;BME280;57318;56.232;43.944;2022-07-31T06:51:48;99334.19;;;29.06;32.15
69980;BME280;57318;56.232;43.944;2022-07-31T06:54:13;99341.84;;;30.77;29.86
69980;BME280;57318;56.232;43.944;2022-07-31T06:56:39;99337.66;;;32.72;27.41
69980;BME280;57318;56.232;43.944;2022-07-31T06:59:05;99335.44;;;32.69;26.27
69980;BME280;57318;56.232;43.944;2022-07-31T07:01:31;99342.00;;;31.95;27.28
69980;BME280;57318;56.232;43.944;2022-07-31T07:03:58;99334.88;;;32.62;26.21
69980;BME280;57318;56.232;43.944;2022-07-31T07:06:24;99339.84;;;34.69;23.78
69980;BME280;57318;56.232;43.944;2022-07-31T07:08:50;99342.75;;;36.16;21.58
69980;BME280;57318;56.232;43.944;2022-07-31T07:11:17;99345.34;;;38.34;19.47
69980;BME280;57318;56.232;43.944;2022-07-31T07:13:43;99353.19;;;38.83;18.33
69980;BME280;57318;56.232;43.944;2022-07-31T07:16:09;99346.13;;;39.44;17.41
69980;BME280;57318;56.232;43.944;2022-07-31T07:18:35;99342.75;;;39.02;17.59
69980;BME280;57318;56.232;43.944;2022-07-31T07:21:03;99335.66;;;36.72;19.22
69980;BME280;57318;56.232;43.944;2022-07-31T07:23:29;99333.94;;;35.90;20.23
69980;BME280;57318;56.232;43.944;2022-07-31T07:25:55;99325.81;;;34.01;21.87
69980;BME280;57318;56.232;43.944;2022-07-31T07:28:21;99321.16;;;32.78;23.58
69980;BME280;57318;56.232;43.944;2022-07-31T07:30:46;99324.41;;;31.53;25.43
69980;BME280;57318;56.232;43.944;2022-07-31T07:33:12;99315.22;;;30.50;26.40
69980;BME280;57318;56.232;43.944;2022-07-31T07:35:37;99313.91;;;29.36;28.04
69980;BME280;57318;56.232;43.944;2022-07-31T07:38:04;99310.91;;;28.46;29.81
69980;BME280;57318;56.232;43.944;2022-07-31T07:40:30;99305.44;;;28.05;30.35
69980;BME280;57318;56.232;43.944;2022-07-31T07:42:56;99307.09;;;27.94;30.34
69980;BME280;57318;56.232;43.944;2022-07-31T07:45:22;99303.78;;;27.92;30.34
69980;BME280;57318;56.232;43.944;2022-07-31T07:47:48;99314.97;;;30.30;27.83
69980;BME280;57318;56.232;43.944;2022-07-31T07:50:14;99317.59;;;32.72;24.92
69980;BME280;57318;56.232;43.944;2022-07-31T07:52:43;99323.47;;;35.28;21.86
69980;BME280;57318;56.232;43.944;2022-07-31T07:55:09;99334.78;;;37.62;19.62
69980;BME280;57318;56.232;43.944;2022-07-31T07:57:37;99330.91;;;39.10;17.83
69980;BME280;57318;56.232;43.944;2022-07-31T08:00:05;99327.31;;;38.96;17.35
69980;BME280;57318;56.232;43.944;2022-07-31T08:02:31;99335.53;;;39.01;16.84
69980;BME280;57318;56.232;43.944;2022-07-31T08:04:57;99326.91;;;38.52;16.96
69980;BME280;57318;56.232;43.944;2022-07-31T08:07:27;99324.47;;;39.55;15.90
69980;BME280;57318;56.232;43.944;2022-07-31T08:09:54;99330.91;;;41.06;14.92
69980;BME280;57318;56.232;43.944;2022-07-31T08:12:19;99332.25;;;42.21;13.50
69980;BME280;57318;56.232;43.944;2022-07-31T08:14:45;99329.31;;;42.68;13.35
69980;BME280;57318;56.232;43.944;2022-07-31T08:17:11;99322.81;;;43.76;12.84
69980;BME280;57318;56.232;43.944;2022-07-31T08:19:37;99320.91;;;41.40;14.00
69980;BME280;57318;56.232;43.944;2022-07-31T08:22:03;99310.22;;;39.03;16.28
69980;BME280;57318;56.232;43.944;2022-07-31T08:24:28;99307.81;;;36.01;18.53
69980;BME280;57318;56.232;43.944;2022-07-31T08:26:54;99295.41;;;34.16;19.72
69980;BME280;57318;56.232;43.944;2022-07-31T08:29:38;99299.56;;;32.33;21.81
69980;BME280;57318;56.232;43.944;2022-07-31T08:32:04;99295.75;;;31.39;22.65
69980;BME280;57318;56.232;43.944;2022-07-31T08:34:30;99296.59;;;30.30;24.62
69980;BME280;57318;56.232;43.944;2022-07-31T08:36:55;99291.66;;;29.49;25.88
69980;BME280;57318;56.232;43.944;2022-07-31T08:39:21;99285.41;;;29.54;25.57
69980;BME280;57318;56.232;43.944;2022-07-31T08:41:46;99283.09;;;30.01;25.70
69980;BME280;57318;56.232;43.944;2022-07-31T08:44:12;99293.13;;;32.96;22.32
69980;BME280;57318;56.232;43.944;2022-07-31T08:46:38;99299.75;;;35.51;20.21
69980;BME280;57318;56.232;43.944;2022-07-31T08:49:06;99298.91;;;37.98;17.54
69980;BME280;57318;56.232;43.944;2022-07-31T08:51:36;99298.72;;;39.72;16.11
69980;BME280;57318;56.232;43.944;2022-07-31T08:54:06;99288.34;;;39.55;15.41
69980;BME280;57318;56.232;43.944;2022-07-31T08:56:33;99296.66;;;40.62;14.05
69980;BME280;57318;56.232;43.944;2022-07-31T08:59:00;99294.47;;;41.46;14.00
69980;BME280;57318;56.232;43.944;2022-07-31T09:01:27;99299.78;;;42.37;13.09
69980;BME280;57318;56.232;43.944;2022-07-31T09:03:53;99293.41;;;42.79;12.75
69980;BME280;57318;56.232;43.944;2022-07-31T09:06:19;99296.25;;;42.49;13.32
69980;BME280;57318;56.232;43.944;2022-07-31T09:08:45;99295.88;;;43.14;12.36
69980;BME280;57318;56.232;43.944;2022-07-31T09:11:13;99300.91;;;43.66;12.89
69980;BME280;57318;56.232;43.944;2022-07-31T09:13:40;99300.00;;;43.87;12.18
69980;BME280;57318;56.232;43.944;2022-07-31T09:16:16;99300.50;;;44.54;13.11
69980;BME280;57318;56.232;43.944;2022-07-31T09:18:42;99307.50;;;45.01;11.50
69980;BME280;57318;56.232;43.944;2022-07-31T09:21:08;99294.56;;;45.56;10.65
69980;BME280;57318;56.232;43.944;2022-07-31T09:23:43;99285.75;;;43.92;11.99
69980;BME280;57318;56.232;43.944;2022-07-31T09:26:10;99281.97;;;41.52;14.06
69980;BME280;57318;56.232;43.944;2022-07-31T09:28:44;99273.38;;;38.52;17.56
69980;BME280;57318;56.232;43.944;2022-07-31T09:31:11;99269.84;;;36.50;17.86
69980;BME280;57318;56.232;43.944;2022-07-31T09:33:41;99268.22;;;34.49;19.35
69980;BME280;57318;56.232;43.944;2022-07-31T09:36:08;99259.81;;;33.29;21.12
69980;BME280;57318;56.232;43.944;2022-07-31T09:38:39;99267.09;;;34.55;20.12
69980;BME280;57318;56.232;43.944;2022-07-31T09:41:12;99274.75;;;36.72;18.17
69980;BME280;57318;56.232;43.944;2022-07-31T09:43:38;99276.84;;;39.16;15.96
69980;BME280;57318;56.232;43.944;2022-07-31T09:46:06;99284.81;;;41.17;14.19
69980;BME280;57318;56.232;43.944;2022-07-31T09:48:33;99282.84;;;42.42;13.32
69980;BME280;57318;56.232;43.944;2022-07-31T09:51:05;99284.91;;;43.42;11.90
69980;BME280;57318;56.232;43.944;2022-07-31T09:53:42;99277.03;;;43.23;11.99
69980;BME280;57318;56.232;43.944;2022-07-31T09:56:10;99285.53;;;43.85;11.88
69980;BME280;57318;56.232;43.944;2022-07-31T09:58:40;99284.91;;;44.81;11.44
69980;BME280;57318;56.232;43.944;2022-07-31T10:01:08;99276.25;;;44.46;11.36
69980;BME280;57318;56.232;43.944;2022-07-31T10:03:39;99281.66;;;44.79;11.61
69980;BME280;57318;56.232;43.944;2022-07-31T10:06:08;99280.28;;;45.46;10.66
69980;BME280;57318;56.232;43.944;2022-07-31T10:08:36;99285.13;;;44.89;11.62
69980;BME280;57318;56.232;43.944;2022-07-31T10:11:03;99271.19;;;43.74;11.59
69980;BME280;57318;56.232;43.944;2022-07-31T10:13:32;99265.03;;;41.10;13.02
69980;BME280;57318;56.232;43.944;2022-07-31T10:16:00;99254.69;;;38.80;14.91
69980;BME280;57318;56.232;43.944;2022-07-31T10:18:30;99250.91;;;39.07;14.90
69980;BME280;57318;56.232;43.944;2022-07-31T10:20:58;99255.06;;;38.51;14.93
69980;BME280;57318;56.232;43.944;2022-07-31T10:23:26;99246.13;;;36.82;16.80
69980;BME280;57318;56.232;43.944;2022-07-31T10:25:58;99248.25;;;36.09;17.01
69980;BME280;57318;56.232;43.944;2022-07-31T10:28:25;99242.91;;;37.41;16.31
69980;BME280;57318;56.232;43.944;2022-07-31T10:30:51;99241.84;;;38.93;14.88
69980;BME280;57318;56.232;43.944;2022-07-31T10:33:17;99258.00;;;40.51;13.58
69980;BME280;57318;56.232;43.944;2022-07-31T10:35:54;99254.97;;;42.04;12.38
69980;BME280;57318;56.232;43.944;2022-07-31T10:38:26;99255.50;;;43.23;11.48
69980;BME280;57318;56.232;43.944;2022-07-31T10:40:58;99253.44;;;43.45;11.08
69980;BME280;57318;56.232;43.944;2022-07-31T10:46:28;99249.91;;;44.35;10.45
69980;BME280;57318;56.232;43.944;2022-07-31T10:48:55;99254.47;;;45.40;10.72
69980;BME280;57318;56.232;43.944;2022-07-31T10:51:21;99250.34;;;46.01;9.80
69980;BME280;57318;56.232;43.944;2022-07-31T10:54:03;99244.34;;;45.67;9.73
69980;BME280;57318;56.232;43.944;2022-07-31T10:56:45;99241.00;;;45.46;10.19
69980;BME280;57318;56.232;43.944;2022-07-31T10:59:12;99238.66;;;46.35;9.63
69980;BME280;57318;56.232;43.944;2022-07-31T11:01:46;99239.47;;;44.07;11.06
69980;BME280;57318;56.232;43.944;2022-07-31T11:04:12;99228.03;;;41.39;13.07
69980;BME280;57318;56.232;43.944;2022-07-31T11:06:39;99229.34;;;39.67;13.87
69980;BME280;57318;56.232;43.944;2022-07-31T11:09:05;99235.56;;;40.65;13.40
69980;BME280;57318;56.232;43.944;2022-07-31T11:11:33;99226.69;;;41.54;12.87
69980;BME280;57318;56.232;43.944;2022-07-31T11:13:59;99236.25;;;42.34;12.35
69980;BME280;57318;56.232;43.944;2022-07-31T11:16:25;99244.06;;;42.41;11.35
69980;BME280;57318;56.232;43.944;2022-07-31T11:19:03;99239.91;;;42.47;11.08
69980;BME280;57318;56.232;43.944;2022-07-31T11:21:38;99241.94;;;43.84;10.25
69980;BME280;57318;56.232;43.944;2022-07-31T11:26:46;99234.81;;;43.03;10.78
69980;BME280;57318;56.232;43.944;2022-07-31T11:29:12;99228.19;;;40.43;12.38
69980;BME280;57318;56.232;43.944;2022-07-31T11:31:37;99217.00;;;38.51;13.66
69980;BME280;57318;56.232;43.944;2022-07-31T11:34:03;99210.38;;;37.32;15.10
69980;BME280;57318;56.232;43.944;2022-07-31T11:36:29;99212.19;;;35.52;17.00
69980;BME280;57318;56.232;43.944;2022-07-31T11:38:55;99204.44;;;34.11;18.96
69980;BME280;57318;56.232;43.944;2022-07-31T11:41:26;99205.63;;;33.19;20.63
69980;BME280;57318;56.232;43.944;2022-07-31T11:43:53;99209.19;;;32.83;21.40
69980;BME280;57318;56.232;43.944;2022-07-31T11:46:33;99199.25;;;32.62;21.46
69980;BME280;57318;56.232;43.944;2022-07-31T11:49:00;99200.59;;;32.23;21.51
69980;BME280;57318;56.232;43.944;2022-07-31T11:51:27;99203.88;;;32.25;21.79
69980;BME280;57318;56.232;43.944;2022-07-31T11:53:54;99206.91;;;33.52;20.30
69980;BME280;57318;56.232;43.944;2022-07-31T11:56:20;99219.09;;;35.73;18.27
69980;BME280;57318;56.232;43.944;2022-07-31T11:58:48;99214.38;;;37.26;16.83
69980;BME280;57318;56.232;43.944;2022-07-31T12:01:15;99220.22;;;38.44;16.12
69980;BME280;57318;56.232;43.944;2022-07-31T12:03:40;99220.16;;;40.15;15.00
69980;BME280;57318;56.232;43.944;2022-07-31T12:06:08;99216.91;;;41.69;13.40
69980;BME280;57318;56.232;43.944;2022-07-31T12:08:34;99222.84;;;41.97;13.08
69980;BME280;57318;56.232;43.944;2022-07-31T12:11:01;99215.22;;;42.15;12.98
69980;BME280;57318;56.232;43.944;2022-07-31T12:13:28;99224.03;;;42.93;12.63
69980;BME280;57318;56.232;43.944;2022-07-31T12:16:01;99228.75;;;42.47;12.70
69980;BME280;57318;56.232;43.944;2022-07-31T12:21:11;99208.66;;;42.87;12.23
69980;BME280;57318;56.232;43.944;2022-07-31T12:23:48;99212.09;;;42.71;12.66
69980;BME280;57318;56.232;43.944;2022-07-31T12:26:48;99218.75;;;43.00;12.00
69980;BME280;57318;56.232;43.944;2022-07-31T12:29:14;99203.53;;;42.77;12.58
69980;BME280;57318;56.232;43.944;2022-07-31T12:31:50;99208.41;;;43.13;11.88
69980;BME280;57318;56.232;43.944;2022-07-31T12:37:17;99204.06;;;42.49;12.27
69980;BME280;57318;56.232;43.944;2022-07-31T12:42:28;99215.41;;;42.31;12.41
69980;BME280;57318;56.232;43.944;2022-07-31T12:44:55;99210.03;;;42.26;12.88
69980;BME280;57318;56.232;43.944;2022-07-31T12:47:25;99210.09;;;42.39;12.74
69980;BME280;57318;56.232;43.944;2022-07-31T12:49:52;99201.78;;;40.93;13.61
69980;BME280;57318;56.232;43.944;2022-07-31T12:52:18;99204.75;;;40.53;13.94
69980;BME280;57318;56.232;43.944;2022-07-31T12:54:45;99205.91;;;40.08;14.48
69980;BME280;57318;56.232;43.944;2022-07-31T12:57:11;99202.38;;;41.16;13.55
69980;BME280;57318;56.232;43.944;2022-07-31T12:59:37;99206.81;;;41.56;13.57
69980;BME280;57318;56.232;43.944;2022-07-31T13:02:03;99202.63;;;42.00;13.05
69980;BME280;57318;56.232;43.944;2022-07-31T13:04:29;99204.84;;;42.58;12.74
69980;BME280;57318;56.232;43.944;2022-07-31T13:06:55;99209.00;;;43.31;12.04
69980;BME280;57318;56.232;43.944;2022-07-31T13:09:21;99207.00;;;44.18;11.23
69980;BME280;57318;56.232;43.944;2022-07-31T13:11:47;99202.97;;;43.78;11.85
69980;BME280;57318;56.232;43.944;2022-07-31T13:14:14;99203.44;;;43.68;11.30